sensor_id;sensor_type;location;lat;lon;timestamp;P1;durP1;ratioP1;P2;durP2;ratioP2
32786;SDS011;19139;49.372;8.580;2023-03-19T00:00:37;2.97;;;2.20;;
32786;SDS011;19139;49.372;8.580;2023-03-19T00:03:03;2.90;;;1.83;;
32786;SDS011;19139;49.372;8.580;2023-03-19T00:05:30;3.97;;;2.20;;
32786;SDS011;19139;49.372;8.580;2023-03-19T00:07:57;2.90;;;2.10;;
32786;SDS011;19139;49.372;8.580;2023-03-19T00:10:24;3.60;;;2.13;;
32786;SDS011;19139;49.372;8.580;2023-03-19T00:12:51;3.07;;;2.30;;
32786;SDS011;19139;49.372;8.580;2023-03-19T00:15:17;3.17;;;2.00;;
32786;SDS011;19139;49.372;8.580;2023-03-19T00:17:44;3.10;;;1.97;;
32786;SDS011;19139;49.372;8.580;2023-03-19T00:20:11;3.20;;;2.47;;
32786;SDS011;19139;49.372;8.580;2023-03-19T00:22:39;4.00;;;2.40;;
32786;SDS011;19139;49.372;8.580;2023-03-19T00:25:06;2.47;;;2.07;;
32786;SDS011;19139;49.372;8.580;2023-03-19T00:27:35;3.20;;;2.30;;
32786;SDS011;19139;49.372;8.580;2023-03-19T00:30:03;3.30;;;2.30;;
32786;SDS011;19139;49.372;8.580;2023-03-19T00:32:31;3.87;;;2.50;;
32786;SDS011;19139;49.372;8.580;2023-03-19T00:34:59;2.80;;;2.30;;
32786;SDS011;19139;49.372;8.580;2023-03-19T00:37:26;2.90;;;2.17;;
32786;SDS011;19139;49.372;8.580;2023-03-19T00:39:52;2.60;;;1.90;;
32786;SDS011;19139;49.372;8.580;2023-03-19T00:42:19;3.77;;;2.40;;
32786;SDS011;19139;49.372;8.580;2023-03-19T00:44:46;2.87;;;2.03;;
32786;SDS011;19139;49.372;8.580;2023-03-19T00:47:12;3.73;;;2.40;;
32786;SDS011;19139;49.372;8.580;2023-03-19T00:49:39;2.77;;;2.37;;
32786;SDS011;19139;49.372;8.580;2023-03-19T00:52:06;8.87;;;3.20;;
32786;SDS011;19139;49.372;8.580;2023-03-19T00:54:32;3.60;;;2.83;;
32786;SDS011;19139;49.372;8.580;2023-03-19T00:56:59;3.50;;;2.30;;
32786;SDS011;19139;49.372;8.580;2023-03-19T00:59:26;4.27;;;2.60;;
32786;SDS011;19139;49.372;8.580;2023-03-19T01:01:52;3.00;;;1.87;;
32786;SDS011;19139;49.372;8.580;2023-03-19T01:04:19;3.50;;;2.53;;
32786;SDS011;19139;49.372;8.580;2023-03-19T01:06:46;3.83;;;2.37;;
32786;SDS011;19139;49.372;8.580;2023-03-19T01:09:13;5.63;;;3.43;;
32786;SDS011;19139;49.372;8.580;2023-03-19T01:11:40;3.07;;;2.23;;
32786;SDS011;19139;49.372;8.580;2023-03-19T01:14:07;2.93;;;2.40;;
32786;SDS011;19139;49.372;8.580;2023-03-19T01:16:34;4.70;;;2.73;;
32786;SDS011;19139;49.372;8.580;2023-03-19T01:19:01;3.40;;;2.50;;
32786;SDS011;19139;49.372;8.580;2023-03-19T01:21:28;4.67;;;2.43;;
32786;SDS011;19139;49.372;8.580;2023-03-19T01:23:57;3.67;;;2.93;;
32786;SDS011;19139;49.372;8.580;2023-03-19T01:26:24;3.67;;;2.50;;
32786;SDS011;19139;49.372;8.580;2023-03-19T01:28:51;4.10;;;2.40;;
32786;SDS011;19139;49.372;8.580;2023-03-19T01:31:18;3.60;;;2.60;;
32786;SDS011;19139;49.372;8.580;2023-03-19T01:33:45;3.57;;;2.13;;
32786;SDS011;19139;49.372;8.580;2023-03-19T01:36:12;3.33;;;2.63;;
32786;SDS011;19139;49.372;8.580;2023-03-19T01:38:38;4.67;;;2.63;;
32786;SDS011;19139;49.372;8.580;2023-03-19T01:41:05;3.30;;;2.40;;
32786;SDS011;19139;49.372;8.580;2023-03-19T01:43:32;3.60;;;2.60;;
32786;SDS011;19139;49.372;8.580;2023-03-19T01:46:00;3.37;;;2.60;;
32786;SDS011;19139;49.372;8.580;2023-03-19T01:48:50;4.63;;;2.90;;
32786;SDS011;19139;49.372;8.580;2023-03-19T01:51:20;2.60;;;2.23;;
32786;SDS011;19139;49.372;8.580;2023-03-19T01:53:52;3.03;;;2.17;;
32786;SDS011;19139;49.372;8.580;2023-03-19T01:56:32;3.03;;;2.73;;
32786;SDS011;19139;49.372;8.580;2023-03-19T01:59:02;4.50;;;2.70;;
32786;SDS011;19139;49.372;8.580;2023-03-19T02:01:32;4.00;;;2.40;;
32786;SDS011;19139;49.372;8.580;2023-03-19T02:04:03;2.63;;;2.30;;
32786;SDS011;19139;49.372;8.580;2023-03-19T02:06:31;3.33;;;2.53;;
32786;SDS011;19139;49.372;8.580;2023-03-19T02:08:58;3.10;;;2.50;;
32786;SDS011;19139;49.372;8.580;2023-03-19T02:11:25;3.07;;;2.30;;
32786;SDS011;19139;49.372;8.580;2023-03-19T02:13:53;3.77;;;2.50;;
32786;SDS011;19139;49.372;8.580;2023-03-19T02:16:19;3.23;;;2.50;;
32786;SDS011;19139;49.372;8.580;2023-03-19T02:18:46;2.70;;;2.17;;
32786;SDS011;19139;49.372;8.580;2023-03-19T02:21:14;4.07;;;2.83;;
32786;SDS011;19139;49.372;8.580;2023-03-19T02:26:34;4.33;;;2.77;;
32786;SDS011;19139;49.372;8.580;2023-03-19T02:29:01;3.13;;;2.37;;
32786;SDS011;19139;49.372;8.580;2023-03-19T02:31:29;3.77;;;2.90;;
32786;SDS011;19139;49.372;8.580;2023-03-19T02:36:56;6.03;;;2.60;;
32786;SDS011;19139;49.372;8.580;2023-03-19T02:39:32;3.53;;;2.50;;
32786;SDS011;19139;49.372;8.580;2023-03-19T02:42:04;3.80;;;2.70;;
32786;SDS011;19139;49.372;8.580;2023-03-19T02:44:31;3.10;;;2.60;;
32786;SDS011;19139;49.372;8.580;2023-03-19T02:46:58;4.20;;;2.50;;
32786;SDS011;19139;49.372;8.580;2023-03-19T02:49:25;4.10;;;2.83;;
32786;SDS011;19139;49.372;8.580;2023-03-19T02:51:52;3.93;;;3.10;;
32786;SDS011;19139;49.372;8.580;2023-03-19T02:54:18;2.83;;;2.50;;
32786;SDS011;19139;49.372;8.580;2023-03-19T02:56:45;2.80;;;2.07;;
32786;SDS011;19139;49.372;8.580;2023-03-19T02:59:12;4.20;;;2.43;;
32786;SDS011;19139;49.372;8.580;2023-03-19T03:01:39;3.80;;;2.30;;
32786;SDS011;19139;49.372;8.580;2023-03-19T03:04:06;3.10;;;2.30;;
32786;SDS011;19139;49.372;8.580;2023-03-19T03:06:33;3.50;;;2.57;;
32786;SDS011;19139;49.372;8.580;2023-03-19T03:09:00;3.03;;;2.40;;
32786;SDS011;19139;49.372;8.580;2023-03-19T03:11:27;3.40;;;2.53;;
32786;SDS011;19139;49.372;8.580;2023-03-19T03:13:53;3.93;;;2.57;;
32786;SDS011;19139;49.372;8.580;2023-03-19T03:16:20;3.37;;;2.40;;
32786;SDS011;19139;49.372;8.580;2023-03-19T03:18:47;3.17;;;2.70;;
32786;SDS011;19139;49.372;8.580;2023-03-19T03:21:14;4.10;;;2.37;;
32786;SDS011;19139;49.372;8.580;2023-03-19T03:23:44;3.00;;;2.43;;
32786;SDS011;19139;49.372;8.580;2023-03-19T03:26:12;4.47;;;2.70;;
32786;SDS011;19139;49.372;8.580;2023-03-19T03:28:39;3.57;;;2.80;;
32786;SDS011;19139;49.372;8.580;2023-03-19T03:31:06;3.50;;;2.60;;
32786;SDS011;19139;49.372;8.580;2023-03-19T03:33:33;3.47;;;2.70;;
32786;SDS011;19139;49.372;8.580;2023-03-19T03:35:59;2.93;;;2.60;;
32786;SDS011;19139;49.372;8.580;2023-03-19T03:38:26;4.43;;;2.97;;
32786;SDS011;19139;49.372;8.580;2023-03-19T03:40:53;3.30;;;2.47;;
32786;SDS011;19139;49.372;8.580;2023-03-19T03:43:19;3.80;;;2.70;;
32786;SDS011;19139;49.372;8.580;2023-03-19T03:45:46;3.30;;;2.70;;
32786;SDS011;19139;49.372;8.580;2023-03-19T03:48:14;3.47;;;2.80;;
32786;SDS011;19139;49.372;8.580;2023-03-19T03:50:41;3.40;;;2.40;;
32786;SDS011;19139;49.372;8.580;2023-03-19T03:53:08;2.60;;;2.40;;
32786;SDS011;19139;49.372;8.580;2023-03-19T03:55:35;3.53;;;2.70;;
32786;SDS011;19139;49.372;8.580;2023-03-19T03:58:02;3.37;;;2.50;;
32786;SDS011;19139;49.372;8.580;2023-03-19T04:00:29;3.03;;;2.57;;
32786;SDS011;19139;49.372;8.580;2023-03-19T04:02:56;4.33;;;2.67;;
32786;SDS011;19139;49.372;8.580;2023-03-19T04:05:22;4.03;;;2.50;;
32786;SDS011;19139;49.372;8.580;2023-03-19T04:07:49;3.60;;;2.37;;
32786;SDS011;19139;49.372;8.580;2023-03-19T04:10:17;3.17;;;2.40;;
32786;SDS011;19139;49.372;8.580;2023-03-19T04:12:43;3.90;;;3.07;;
32786;SDS011;19139;49.372;8.580;2023-03-19T04:15:11;3.40;;;2.50;;
32786;SDS011;19139;49.372;8.580;2023-03-19T04:17:38;2.87;;;2.57;;
32786;SDS011;19139;49.372;8.580;2023-03-19T04:20:05;3.03;;;2.73;;
32786;SDS011;19139;49.372;8.580;2023-03-19T04:22:32;4.13;;;3.30;;
32786;SDS011;19139;49.372;8.580;2023-03-19T04:24:59;3.00;;;2.30;;
32786;SDS011;19139;49.372;8.580;2023-03-19T04:27:26;2.90;;;2.60;;
32786;SDS011;19139;49.372;8.580;2023-03-19T04:29:52;2.97;;;2.67;;
32786;SDS011;19139;49.372;8.580;2023-03-19T04:32:19;3.63;;;2.60;;
32786;SDS011;19139;49.372;8.580;2023-03-19T04:34:46;2.83;;;2.30;;
32786;SDS011;19139;49.372;8.580;2023-03-19T04:37:13;3.50;;;2.47;;
32786;SDS011;19139;49.372;8.580;2023-03-19T04:39:40;2.90;;;2.60;;
32786;SDS011;19139;49.372;8.580;2023-03-19T04:42:06;3.90;;;2.40;;
32786;SDS011;19139;49.372;8.580;2023-03-19T04:44:33;3.23;;;2.47;;
32786;SDS011;19139;49.372;8.580;2023-03-19T04:47:00;3.37;;;2.47;;
32786;SDS011;19139;49.372;8.580;2023-03-19T04:49:26;3.43;;;2.47;;
32786;SDS011;19139;49.372;8.580;2023-03-19T04:51:53;3.63;;;2.90;;
32786;SDS011;19139;49.372;8.580;2023-03-19T04:54:21;3.33;;;2.30;;
32786;SDS011;19139;49.372;8.580;2023-03-19T04:56:48;3.00;;;2.63;;
32786;SDS011;19139;49.372;8.580;2023-03-19T04:59:15;2.93;;;2.63;;
32786;SDS011;19139;49.372;8.580;2023-03-19T05:01:42;4.40;;;2.20;;
32786;SDS011;19139;49.372;8.580;2023-03-19T05:04:09;2.63;;;2.23;;
32786;SDS011;19139;49.372;8.580;2023-03-19T05:06:36;3.13;;;2.90;;
32786;SDS011;19139;49.372;8.580;2023-03-19T05:09:03;2.97;;;2.50;;
32786;SDS011;19139;49.372;8.580;2023-03-19T05:11:31;3.47;;;2.50;;
32786;SDS011;19139;49.372;8.580;2023-03-19T05:13:58;3.20;;;2.53;;
32786;SDS011;19139;49.372;8.580;2023-03-19T05:16:25;4.50;;;3.20;;
32786;SDS011;19139;49.372;8.580;2023-03-19T05:18:52;2.80;;;2.27;;
32786;SDS011;19139;49.372;8.580;2023-03-19T05:21:19;3.07;;;2.40;;
32786;SDS011;19139;49.372;8.580;2023-03-19T05:23:46;4.77;;;2.53;;
32786;SDS011;19139;49.372;8.580;2023-03-19T05:26:17;3.20;;;2.70;;
32786;SDS011;19139;49.372;8.580;2023-03-19T05:28:44;2.77;;;2.37;;
32786;SDS011;19139;49.372;8.580;2023-03-19T05:31:10;3.17;;;2.60;;
32786;SDS011;19139;49.372;8.580;2023-03-19T05:33:37;3.20;;;2.60;;
32786;SDS011;19139;49.372;8.580;2023-03-19T05:36:04;3.60;;;2.90;;
32786;SDS011;19139;49.372;8.580;2023-03-19T05:38:31;3.93;;;2.63;;
32786;SDS011;19139;49.372;8.580;2023-03-19T05:41:02;3.50;;;2.50;;
32786;SDS011;19139;49.372;8.580;2023-03-19T05:43:29;3.00;;;2.30;;
32786;SDS011;19139;49.372;8.580;2023-03-19T05:45:56;2.67;;;2.10;;
32786;SDS011;19139;49.372;8.580;2023-03-19T05:48:24;3.47;;;2.60;;
32786;SDS011;19139;49.372;8.580;2023-03-19T05:50:51;3.40;;;2.60;;
32786;SDS011;19139;49.372;8.580;2023-03-19T05:53:18;3.63;;;2.43;;
32786;SDS011;19139;49.372;8.580;2023-03-19T05:55:45;3.63;;;2.47;;
32786;SDS011;19139;49.372;8.580;2023-03-19T05:58:12;3.03;;;2.67;;
32786;SDS011;19139;49.372;8.580;2023-03-19T06:00:39;3.47;;;2.77;;
32786;SDS011;19139;49.372;8.580;2023-03-19T06:03:05;3.70;;;2.67;;
32786;SDS011;19139;49.372;8.580;2023-03-19T06:05:32;3.10;;;2.30;;
32786;SDS011;19139;49.372;8.580;2023-03-19T06:07:59;3.40;;;2.63;;
32786;SDS011;19139;49.372;8.580;2023-03-19T06:10:25;3.23;;;2.60;;
32786;SDS011;19139;49.372;8.580;2023-03-19T06:12:52;2.63;;;2.20;;
32786;SDS011;19139;49.372;8.580;2023-03-19T06:15:19;3.10;;;2.50;;
32786;SDS011;19139;49.372;8.580;2023-03-19T06:17:46;2.97;;;2.50;;
32786;SDS011;19139;49.372;8.580;2023-03-19T06:20:12;3.30;;;2.30;;
32786;SDS011;19139;49.372;8.580;2023-03-19T06:22:39;2.40;;;2.00;;
32786;SDS011;19139;49.372;8.580;2023-03-19T06:25:06;3.27;;;2.57;;
32786;SDS011;19139;49.372;8.580;2023-03-19T06:27:33;2.70;;;2.10;;
32786;SDS011;19139;49.372;8.580;2023-03-19T06:29:59;2.87;;;2.30;;
32786;SDS011;19139;49.372;8.580;2023-03-19T06:32:26;3.10;;;2.67;;
32786;SDS011;19139;49.372;8.580;2023-03-19T06:34:53;2.87;;;2.33;;
32786;SDS011;19139;49.372;8.580;2023-03-19T06:37:21;3.40;;;2.70;;
32786;SDS011;19139;49.372;8.580;2023-03-19T06:39:47;2.80;;;2.47;;
32786;SDS011;19139;49.372;8.580;2023-03-19T06:42:14;3.23;;;2.43;;
32786;SDS011;19139;49.372;8.580;2023-03-19T06:44:42;3.03;;;2.60;;
32786;SDS011;19139;49.372;8.580;2023-03-19T06:47:08;2.80;;;2.50;;
32786;SDS011;19139;49.372;8.580;2023-03-19T06:49:35;3.50;;;2.43;;
32786;SDS011;19139;49.372;8.580;2023-03-19T06:52:02;2.87;;;2.33;;
32786;SDS011;19139;49.372;8.580;2023-03-19T06:54:29;2.70;;;2.50;;
32786;SDS011;19139;49.372;8.580;2023-03-19T06:56:56;2.70;;;2.07;;
32786;SDS011;19139;49.372;8.580;2023-03-19T06:59:23;2.67;;;2.30;;
32786;SDS011;19139;49.372;8.580;2023-03-19T07:01:50;2.87;;;2.30;;
32786;SDS011;19139;49.372;8.580;2023-03-19T07:04:17;3.60;;;2.40;;
32786;SDS011;19139;49.372;8.580;2023-03-19T07:06:44;3.37;;;2.77;;
32786;SDS011;19139;49.372;8.580;2023-03-19T07:09:11;2.90;;;2.60;;
32786;SDS011;19139;49.372;8.580;2023-03-19T07:11:38;2.90;;;2.60;;
32786;SDS011;19139;49.372;8.580;2023-03-19T07:14:04;3.03;;;2.47;;
32786;SDS011;19139;49.372;8.580;2023-03-19T07:16:31;2.87;;;2.03;;
32786;SDS011;19139;49.372;8.580;2023-03-19T07:18:58;2.90;;;2.20;;
32786;SDS011;19139;49.372;8.580;2023-03-19T07:21:24;2.70;;;2.23;;
32786;SDS011;19139;49.372;8.580;2023-03-19T07:23:51;2.93;;;2.30;;
32786;SDS011;19139;49.372;8.580;2023-03-19T07:26:18;2.90;;;2.60;;
32786;SDS011;19139;49.372;8.580;2023-03-19T07:28:44;2.20;;;2.00;;
32786;SDS011;19139;49.372;8.580;2023-03-19T07:31:11;3.63;;;2.33;;
32786;SDS011;19139;49.372;8.580;2023-03-19T07:33:38;2.50;;;2.17;;
32786;SDS011;19139;49.372;8.580;2023-03-19T07:36:05;3.03;;;2.63;;
32786;SDS011;19139;49.372;8.580;2023-03-19T07:38:32;3.23;;;2.93;;
32786;SDS011;19139;49.372;8.580;2023-03-19T07:40:58;3.17;;;2.50;;
32786;SDS011;19139;49.372;8.580;2023-03-19T07:43:28;3.03;;;2.27;;
32786;SDS011;19139;49.372;8.580;2023-03-19T07:45:55;2.50;;;2.30;;
32786;SDS011;19139;49.372;8.580;2023-03-19T07:48:22;2.23;;;2.03;;
32786;SDS011;19139;49.372;8.580;2023-03-19T07:50:50;2.77;;;2.30;;
32786;SDS011;19139;49.372;8.580;2023-03-19T07:53:17;2.00;;;1.80;;
32786;SDS011;19139;49.372;8.580;2023-03-19T07:55:44;2.83;;;2.30;;
32786;SDS011;19139;49.372;8.580;2023-03-19T07:58:12;2.43;;;2.10;;
32786;SDS011;19139;49.372;8.580;2023-03-19T08:00:38;3.40;;;2.43;;
32786;SDS011;19139;49.372;8.580;2023-03-19T08:03:05;2.50;;;2.27;;
32786;SDS011;19139;49.372;8.580;2023-03-19T08:05:32;3.70;;;2.40;;
32786;SDS011;19139;49.372;8.580;2023-03-19T08:07:58;3.87;;;2.43;;
32786;SDS011;19139;49.372;8.580;2023-03-19T08:10:25;3.43;;;2.33;;
32786;SDS011;19139;49.372;8.580;2023-03-19T08:12:52;4.27;;;2.13;;
32786;SDS011;19139;49.372;8.580;2023-03-19T08:15:19;2.63;;;2.23;;
32786;SDS011;19139;49.372;8.580;2023-03-19T08:17:45;3.00;;;2.10;;
32786;SDS011;19139;49.372;8.580;2023-03-19T08:20:13;2.60;;;2.40;;
32786;SDS011;19139;49.372;8.580;2023-03-19T08:22:43;2.93;;;2.33;;
32786;SDS011;19139;49.372;8.580;2023-03-19T08:25:15;2.90;;;2.17;;
32786;SDS011;19139;49.372;8.580;2023-03-19T08:27:42;2.60;;;2.23;;
32786;SDS011;19139;49.372;8.580;2023-03-19T08:30:09;3.60;;;2.13;;
32786;SDS011;19139;49.372;8.580;2023-03-19T08:32:36;2.53;;;2.10;;
32786;SDS011;19139;49.372;8.580;2023-03-19T08:35:03;3.10;;;2.23;;
32786;SDS011;19139;49.372;8.580;2023-03-19T08:37:32;3.13;;;2.80;;
32786;SDS011;19139;49.372;8.580;2023-03-19T08:39:58;2.70;;;2.20;;
32786;SDS011;19139;49.372;8.580;2023-03-19T08:42:25;3.53;;;2.50;;
32786;SDS011;19139;49.372;8.580;2023-03-19T08:44:51;2.63;;;2.13;;
32786;SDS011;19139;49.372;8.580;2023-03-19T08:47:18;2.83;;;2.40;;
32786;SDS011;19139;49.372;8.580;2023-03-19T08:49:49;2.80;;;2.10;;
32786;SDS011;19139;49.372;8.580;2023-03-19T08:52:17;2.90;;;2.37;;
32786;SDS011;19139;49.372;8.580;2023-03-19T08:54:46;3.13;;;2.37;;
32786;SDS011;19139;49.372;8.580;2023-03-19T08:57:13;2.60;;;2.00;;
32786;SDS011;19139;49.372;8.580;2023-03-19T08:59:40;2.53;;;2.10;;
32786;SDS011;19139;49.372;8.580;2023-03-19T09:02:08;2.10;;;1.90;;
32786;SDS011;19139;49.372;8.580;2023-03-19T09:04:40;2.40;;;2.20;;
32786;SDS011;19139;49.372;8.580;2023-03-19T09:07:08;2.63;;;2.23;;
32786;SDS011;19139;49.372;8.580;2023-03-19T09:09:38;2.30;;;2.10;;
32786;SDS011;19139;49.372;8.580;2023-03-19T09:12:06;2.40;;;2.20;;
32786;SDS011;19139;49.372;8.580;2023-03-19T09:14:34;2.97;;;2.60;;
32786;SDS011;19139;49.372;8.580;2023-03-19T09:17:02;1.97;;;1.80;;
32786;SDS011;19139;49.372;8.580;2023-03-19T09:19:28;2.87;;;2.57;;
32786;SDS011;19139;49.372;8.580;2023-03-19T09:21:55;3.00;;;2.53;;
32786;SDS011;19139;49.372;8.580;2023-03-19T09:24:22;2.43;;;2.17;;
32786;SDS011;19139;49.372;8.580;2023-03-19T09:26:48;2.73;;;2.30;;
32786;SDS011;19139;49.372;8.580;2023-03-19T09:29:15;2.17;;;1.90;;
32786;SDS011;19139;49.372;8.580;2023-03-19T09:31:41;3.27;;;2.17;;
32786;SDS011;19139;49.372;8.580;2023-03-19T09:34:08;2.50;;;1.93;;
32786;SDS011;19139;49.372;8.580;2023-03-19T09:36:35;2.93;;;2.10;;
32786;SDS011;19139;49.372;8.580;2023-03-19T09:39:03;2.20;;;1.90;;
32786;SDS011;19139;49.372;8.580;2023-03-19T09:42:14;2.63;;;1.93;;
32786;SDS011;19139;49.372;8.580;2023-03-19T09:44:35;2.63;;;2.00;;
32786;SDS011;19139;49.372;8.580;2023-03-19T09:47:11;2.67;;;2.17;;
32786;SDS011;19139;49.372;8.580;2023-03-19T09:49:52;1.90;;;1.70;;
32786;SDS011;19139;49.372;8.580;2023-03-19T09:52:30;2.50;;;2.30;;
32786;SDS011;19139;49.372;8.580;2023-03-19T09:57:56;2.53;;;1.97;;
32786;SDS011;19139;49.372;8.580;2023-03-19T10:11:44;2.70;;;2.30;;
32786;SDS011;19139;49.372;8.580;2023-03-19T10:17:15;2.27;;;2.07;;
32786;SDS011;19139;49.372;8.580;2023-03-19T10:19:52;2.10;;;1.90;;
32786;SDS011;19139;49.372;8.580;2023-03-19T10:22:28;2.60;;;1.97;;
32786;SDS011;19139;49.372;8.580;2023-03-19T10:25:00;2.30;;;2.10;;
32786;SDS011;19139;49.372;8.580;2023-03-19T10:27:28;2.43;;;2.00;;
32786;SDS011;19139;49.372;8.580;2023-03-19T10:29:55;2.37;;;2.17;;
32786;SDS011;19139;49.372;8.580;2023-03-19T10:32:34;2.20;;;1.97;;
32786;SDS011;19139;49.372;8.580;2023-03-19T10:35:11;2.43;;;1.97;;
32786;SDS011;19139;49.372;8.580;2023-03-19T10:37:44;2.90;;;2.17;;
32786;SDS011;19139;49.372;8.580;2023-03-19T10:40:26;2.43;;;2.10;;
32786;SDS011;19139;49.372;8.580;2023-03-19T10:43:06;2.43;;;2.10;;
32786;SDS011;19139;49.372;8.580;2023-03-19T10:45:42;2.03;;;1.83;;
32786;SDS011;19139;49.372;8.580;2023-03-19T10:48:14;2.50;;;2.03;;
32786;SDS011;19139;49.372;8.580;2023-03-19T10:55:45;1.90;;;1.70;;
32786;SDS011;19139;49.372;8.580;2023-03-19T10:58:27;2.30;;;2.03;;
32786;SDS011;19139;49.372;8.580;2023-03-19T11:01:03;2.13;;;1.70;;
32786;SDS011;19139;49.372;8.580;2023-03-19T11:03:34;2.20;;;1.83;;
32786;SDS011;19139;49.372;8.580;2023-03-19T11:06:33;2.57;;;1.97;;
32786;SDS011;19139;49.372;8.580;2023-03-19T11:11:34;2.50;;;2.13;;
32786;SDS011;19139;49.372;8.580;2023-03-19T11:14:16;2.10;;;1.90;;
32786;SDS011;19139;49.372;8.580;2023-03-19T11:17:17;2.80;;;1.93;;
32786;SDS011;19139;49.372;8.580;2023-03-19T11:19:52;2.03;;;1.60;;
32786;SDS011;19139;49.372;8.580;2023-03-19T11:22:25;2.70;;;1.90;;
32786;SDS011;19139;49.372;8.580;2023-03-19T11:24:59;2.30;;;1.83;;
32786;SDS011;19139;49.372;8.580;2023-03-19T11:27:31;2.57;;;1.83;;
32786;SDS011;19139;49.372;8.580;2023-03-19T11:30:00;2.03;;;1.80;;
32786;SDS011;19139;49.372;8.580;2023-03-19T11:32:36;1.90;;;1.53;;
32786;SDS011;19139;49.372;8.580;2023-03-19T11:35:48;2.43;;;1.87;;
32786;SDS011;19139;49.372;8.580;2023-03-19T11:47:14;2.30;;;1.90;;
32786;SDS011;19139;49.372;8.580;2023-03-19T11:52:58;2.07;;;1.67;;
32786;SDS011;19139;49.372;8.580;2023-03-19T11:55:47;3.50;;;1.83;;
32786;SDS011;19139;49.372;8.580;2023-03-19T12:04:05;2.30;;;1.40;;
32786;SDS011;19139;49.372;8.580;2023-03-19T12:09:37;2.20;;;2.00;;
32786;SDS011;19139;49.372;8.580;2023-03-19T12:12:30;2.00;;;1.70;;
32786;SDS011;19139;49.372;8.580;2023-03-19T12:15:14;1.80;;;1.40;;
32786;SDS011;19139;49.372;8.580;2023-03-19T12:26:54;1.80;;;1.43;;
32786;SDS011;19139;49.372;8.580;2023-03-19T12:34:52;1.60;;;1.20;;
32786;SDS011;19139;49.372;8.580;2023-03-19T12:42:56;2.33;;;1.60;;
32786;SDS011;19139;49.372;8.580;2023-03-19T12:45:31;2.07;;;1.87;;
32786;SDS011;19139;49.372;8.580;2023-03-19T12:48:07;1.77;;;1.67;;
32786;SDS011;19139;49.372;8.580;2023-03-19T12:50:58;2.30;;;1.87;;
32786;SDS011;19139;49.372;8.580;2023-03-19T12:58:52;1.83;;;1.70;;
32786;SDS011;19139;49.372;8.580;2023-03-19T13:01:34;1.80;;;1.40;;
32786;SDS011;19139;49.372;8.580;2023-03-19T13:04:10;1.97;;;1.77;;
32786;SDS011;19139;49.372;8.580;2023-03-19T13:06:48;1.60;;;1.50;;
32786;SDS011;19139;49.372;8.580;2023-03-19T13:09:31;1.53;;;1.37;;
32786;SDS011;19139;49.372;8.580;2023-03-19T13:12:16;1.87;;;1.60;;
32786;SDS011;19139;49.372;8.580;2023-03-19T13:20:18;1.53;;;1.43;;
32786;SDS011;19139;49.372;8.580;2023-03-19T13:22:53;1.40;;;1.00;;
32786;SDS011;19139;49.372;8.580;2023-03-19T13:25:31;2.07;;;1.40;;
32786;SDS011;19139;49.372;8.580;2023-03-19T13:28:11;1.97;;;1.70;;
32786;SDS011;19139;49.372;8.580;2023-03-19T13:30:59;1.70;;;1.60;;
32786;SDS011;19139;49.372;8.580;2023-03-19T13:33:27;1.90;;;1.80;;
32786;SDS011;19139;49.372;8.580;2023-03-19T13:35:55;2.33;;;1.30;;
32786;SDS011;19139;49.372;8.580;2023-03-19T13:38:26;1.60;;;1.30;;
32786;SDS011;19139;49.372;8.580;2023-03-19T13:43:58;1.80;;;1.40;;
32786;SDS011;19139;49.372;8.580;2023-03-19T13:46:28;1.90;;;1.53;;
32786;SDS011;19139;49.372;8.580;2023-03-19T13:49:07;1.60;;;1.50;;
32786;SDS011;19139;49.372;8.580;2023-03-19T13:51:52;2.17;;;1.70;;
32786;SDS011;19139;49.372;8.580;2023-03-19T13:54:22;2.07;;;1.30;;
32786;SDS011;19139;49.372;8.580;2023-03-19T13:57:20;1.37;;;1.27;;
32786;SDS011;19139;49.372;8.580;2023-03-19T13:59:57;1.33;;;1.23;;
32786;SDS011;19139;49.372;8.580;2023-03-19T14:03:27;2.13;;;1.53;;
32786;SDS011;19139;49.372;8.580;2023-03-19T14:05:56;1.63;;;1.13;;
32786;SDS011;19139;49.372;8.580;2023-03-19T14:08:28;2.53;;;1.60;;
32786;SDS011;19139;49.372;8.580;2023-03-19T14:10:59;2.20;;;1.40;;
32786;SDS011;19139;49.372;8.580;2023-03-19T14:16:00;2.83;;;1.30;;
32786;SDS011;19139;49.372;8.580;2023-03-19T14:18:55;2.40;;;1.57;;
32786;SDS011;19139;49.372;8.580;2023-03-19T14:21:38;3.67;;;2.17;;
32786;SDS011;19139;49.372;8.580;2023-03-19T14:24:19;3.10;;;1.70;;
32786;SDS011;19139;49.372;8.580;2023-03-19T14:27:15;3.17;;;2.07;;
32786;SDS011;19139;49.372;8.580;2023-03-19T14:29:55;4.27;;;2.27;;
32786;SDS011;19139;49.372;8.580;2023-03-19T14:32:30;4.27;;;2.10;;
32786;SDS011;19139;49.372;8.580;2023-03-19T14:35:02;2.93;;;2.10;;
32786;SDS011;19139;49.372;8.580;2023-03-19T14:40:02;3.80;;;2.40;;
32786;SDS011;19139;49.372;8.580;2023-03-19T14:42:59;4.90;;;2.87;;
32786;SDS011;19139;49.372;8.580;2023-03-19T14:57:16;2.87;;;2.40;;
32786;SDS011;19139;49.372;8.580;2023-03-19T14:59:44;3.40;;;2.37;;
32786;SDS011;19139;49.372;8.580;2023-03-19T15:05:14;2.97;;;2.17;;
32786;SDS011;19139;49.372;8.580;2023-03-19T15:07:54;4.67;;;2.90;;
32786;SDS011;19139;49.372;8.580;2023-03-19T15:10:31;3.60;;;2.60;;
32786;SDS011;19139;49.372;8.580;2023-03-19T15:18:57;2.97;;;2.10;;
32786;SDS011;19139;49.372;8.580;2023-03-19T15:21:24;2.83;;;2.23;;
32786;SDS011;19139;49.372;8.580;2023-03-19T15:23:51;5.03;;;2.93;;
32786;SDS011;19139;49.372;8.580;2023-03-19T15:26:27;5.43;;;3.07;;
32786;SDS011;19139;49.372;8.580;2023-03-19T15:28:58;5.17;;;3.30;;
32786;SDS011;19139;49.372;8.580;2023-03-19T15:31:39;5.20;;;3.00;;
32786;SDS011;19139;49.372;8.580;2023-03-19T15:34:21;5.80;;;3.27;;
32786;SDS011;19139;49.372;8.580;2023-03-19T15:37:01;3.20;;;2.50;;
32786;SDS011;19139;49.372;8.580;2023-03-19T15:39:33;4.73;;;3.00;;
32786;SDS011;19139;49.372;8.580;2023-03-19T15:42:04;5.17;;;3.77;;
32786;SDS011;19139;49.372;8.580;2023-03-19T15:44:36;5.57;;;3.97;;
32786;SDS011;19139;49.372;8.580;2023-03-19T15:47:10;5.17;;;3.40;;
32786;SDS011;19139;49.372;8.580;2023-03-19T15:49:42;4.47;;;3.53;;
32786;SDS011;19139;49.372;8.580;2023-03-19T15:52:26;5.77;;;3.30;;
32786;SDS011;19139;49.372;8.580;2023-03-19T15:54:56;4.30;;;2.50;;
32786;SDS011;19139;49.372;8.580;2023-03-19T15:57:24;6.60;;;3.07;;
32786;SDS011;19139;49.372;8.580;2023-03-19T15:59:54;3.27;;;2.37;;
32786;SDS011;19139;49.372;8.580;2023-03-19T16:02:30;3.97;;;2.57;;
32786;SDS011;19139;49.372;8.580;2023-03-19T16:04:59;5.90;;;3.23;;
32786;SDS011;19139;49.372;8.580;2023-03-19T16:07:47;4.07;;;2.80;;
32786;SDS011;19139;49.372;8.580;2023-03-19T16:10:36;3.93;;;2.90;;
32786;SDS011;19139;49.372;8.580;2023-03-19T16:13:19;8.70;;;2.47;;
32786;SDS011;19139;49.372;8.580;2023-03-19T16:16:01;3.43;;;2.60;;
32786;SDS011;19139;49.372;8.580;2023-03-19T16:18:48;5.43;;;3.07;;
32786;SDS011;19139;49.372;8.580;2023-03-19T16:21:20;4.67;;;3.20;;
32786;SDS011;19139;49.372;8.580;2023-03-19T16:26:56;6.27;;;3.33;;
32786;SDS011;19139;49.372;8.580;2023-03-19T16:29:24;5.50;;;3.03;;
32786;SDS011;19139;49.372;8.580;2023-03-19T16:31:57;4.30;;;2.90;;
32786;SDS011;19139;49.372;8.580;2023-03-19T16:36:57;6.43;;;2.80;;
32786;SDS011;19139;49.372;8.580;2023-03-19T16:39:25;3.73;;;2.93;;
32786;SDS011;19139;49.372;8.580;2023-03-19T16:44:41;3.53;;;2.83;;
32786;SDS011;19139;49.372;8.580;2023-03-19T16:47:12;3.10;;;2.50;;
32786;SDS011;19139;49.372;8.580;2023-03-19T16:49:40;4.87;;;3.17;;
32786;SDS011;19139;49.372;8.580;2023-03-19T16:52:14;3.70;;;2.60;;
32786;SDS011;19139;49.372;8.580;2023-03-19T16:54:44;3.60;;;2.20;;
32786;SDS011;19139;49.372;8.580;2023-03-19T16:57:12;2.67;;;2.27;;
32786;SDS011;19139;49.372;8.580;2023-03-19T16:59:41;3.90;;;2.70;;
32786;SDS011;19139;49.372;8.580;2023-03-19T17:02:12;3.77;;;2.67;;
32786;SDS011;19139;49.372;8.580;2023-03-19T17:04:40;4.07;;;2.50;;
32786;SDS011;19139;49.372;8.580;2023-03-19T17:07:07;5.63;;;2.67;;